sensor_id;sensor_type;location;lat;lon;timestamp;P1;durP1;ratioP1;P2;durP2;ratioP2
64500;SDS011;50874;24.150;-110.320;2022-10-16T00:01:33;5.20;;;1.50;;
64500;SDS011;50874;24.150;-110.320;2022-10-16T00:04:00;13.40;;;2.13;;
64500;SDS011;50874;24.150;-110.320;2022-10-16T00:06:28;15.30;;;2.42;;
64500;SDS011;50874;24.150;-110.320;2022-10-16T00:08:55;20.70;;;2.97;;
64500;SDS011;50874;24.150;-110.320;2022-10-16T00:11:23;5.10;;;1.52;;
64500;SDS011;50874;24.150;-110.320;2022-10-16T00:13:54;6.30;;;1.70;;
64500;SDS011;50874;24.150;-110.320;2022-10-16T00:16:23;5.88;;;1.80;;
64500;SDS011;50874;24.150;-110.320;2022-10-16T00:18:50;7.63;;;1.70;;
64500;SDS011;50874;24.150;-110.320;2022-10-16T00:21:18;6.85;;;1.67;;
64500;SDS011;50874;24.150;-110.320;2022-10-16T00:23:46;12.65;;;2.53;;
64500;SDS011;50874;24.150;-110.320;2022-10-16T00:26:17;7.10;;;2.17;;
64500;SDS011;50874;24.150;-110.320;2022-10-16T00:28:48;5.35;;;1.80;;
64500;SDS011;50874;24.150;-110.320;2022-10-16T00:31:16;8.18;;;1.95;;
64500;SDS011;50874;24.150;-110.320;2022-10-16T00:33:45;9.45;;;1.65;;
64500;SDS011;50874;24.150;-110.320;2022-10-16T00:36:12;8.52;;;2.20;;
64500;SDS011;50874;24.150;-110.320;2022-10-16T00:38:40;5.05;;;1.77;;
64500;SDS011;50874;24.150;-110.320;2022-10-16T00:41:09;10.77;;;2.53;;
64500;SDS011;50874;24.150;-110.320;2022-10-16T00:43:41;11.98;;;2.70;;
64500;SDS011;50874;24.150;-110.320;2022-10-16T00:51:43;3.28;;;1.70;;
64500;SDS011;50874;24.150;-110.320;2022-10-16T00:54:18;6.70;;;1.92;;
64500;SDS011;50874;24.150;-110.320;2022-10-16T00:59:22;8.68;;;2.50;;
64500;SDS011;50874;24.150;-110.320;2022-10-16T01:01:53;13.07;;;3.50;;
64500;SDS011;50874;24.150;-110.320;2022-10-16T01:04:20;13.20;;;3.17;;
64500;SDS011;50874;24.150;-110.320;2022-10-16T01:09:25;14.10;;;3.38;;
64500;SDS011;50874;24.150;-110.320;2022-10-16T01:12:41;10.50;;;2.53;;
64500;SDS011;50874;24.150;-110.320;2022-10-16T01:15:17;2.05;;;1.40;;
64500;SDS011;50874;24.150;-110.320;2022-10-16T01:18:14;7.47;;;2.90;;
64500;SDS011;50874;24.150;-110.320;2022-10-16T01:20:47;13.95;;;2.15;;
64500;SDS011;50874;24.150;-110.320;2022-10-16T01:31:07;7.25;;;1.88;;
64500;SDS011;50874;24.150;-110.320;2022-10-16T01:33:41;3.72;;;2.20;;
64500;SDS011;50874;24.150;-110.320;2022-10-16T01:36:19;4.00;;;1.63;;
64500;SDS011;50874;24.150;-110.320;2022-10-16T01:38:51;5.03;;;1.85;;
64500;SDS011;50874;24.150;-110.320;2022-10-16T01:41:23;9.52;;;1.90;;
64500;SDS011;50874;24.150;-110.320;2022-10-16T01:43:58;13.38;;;2.33;;
64500;SDS011;50874;24.150;-110.320;2022-10-16T01:46:31;10.18;;;1.88;;
64500;SDS011;50874;24.150;-110.320;2022-10-16T01:49:00;6.18;;;2.03;;
64500;SDS011;50874;24.150;-110.320;2022-10-16T01:51:28;7.53;;;1.90;;
64500;SDS011;50874;24.150;-110.320;2022-10-16T01:53:56;10.68;;;2.15;;
64500;SDS011;50874;24.150;-110.320;2022-10-16T01:56:25;7.30;;;2.25;;
64500;SDS011;50874;24.150;-110.320;2022-10-16T01:58:59;5.40;;;1.90;;
64500;SDS011;50874;24.150;-110.320;2022-10-16T02:01:30;6.93;;;2.10;;
64500;SDS011;50874;24.150;-110.320;2022-10-16T02:03:59;6.95;;;1.63;;
64500;SDS011;50874;24.150;-110.320;2022-10-16T02:06:32;11.25;;;2.15;;
64500;SDS011;50874;24.150;-110.320;2022-10-16T02:08:59;13.68;;;2.50;;
64500;SDS011;50874;24.150;-110.320;2022-10-16T02:11:26;10.60;;;2.40;;
64500;SDS011;50874;24.150;-110.320;2022-10-16T02:13:58;4.80;;;1.40;;
64500;SDS011;50874;24.150;-110.320;2022-10-16T02:16:34;5.45;;;2.28;;
64500;SDS011;50874;24.150;-110.320;2022-10-16T02:19:13;12.48;;;2.08;;
64500;SDS011;50874;24.150;-110.320;2022-10-16T02:29:33;12.07;;;2.40;;
64500;SDS011;50874;24.150;-110.320;2022-10-16T02:32:04;12.98;;;2.17;;
64500;SDS011;50874;24.150;-110.320;2022-10-16T02:34:34;7.40;;;2.70;;
64500;SDS011;50874;24.150;-110.320;2022-10-16T02:37:01;15.40;;;3.05;;
64500;SDS011;50874;24.150;-110.320;2022-10-16T02:39:30;7.82;;;2.15;;
64500;SDS011;50874;24.150;-110.320;2022-10-16T02:41:57;10.98;;;2.83;;
64500;SDS011;50874;24.150;-110.320;2022-10-16T02:44:23;6.80;;;2.30;;
64500;SDS011;50874;24.150;-110.320;2022-10-16T02:46:50;4.43;;;1.70;;
64500;SDS011;50874;24.150;-110.320;2022-10-16T02:49:16;10.63;;;2.33;;
64500;SDS011;50874;24.150;-110.320;2022-10-16T02:51:43;6.80;;;2.25;;
64500;SDS011;50874;24.150;-110.320;2022-10-16T02:54:10;8.27;;;2.05;;
64500;SDS011;50874;24.150;-110.320;2022-10-16T02:56:36;6.57;;;2.58;;
64500;SDS011;50874;24.150;-110.320;2022-10-16T02:59:03;4.57;;;2.05;;
64500;SDS011;50874;24.150;-110.320;2022-10-16T03:01:29;9.15;;;2.13;;
64500;SDS011;50874;24.150;-110.320;2022-10-16T03:03:59;10.43;;;2.00;;
64500;SDS011;50874;24.150;-110.320;2022-10-16T03:06:25;6.32;;;2.25;;
64500;SDS011;50874;24.150;-110.320;2022-10-16T03:08:51;5.63;;;2.13;;
64500;SDS011;50874;24.150;-110.320;2022-10-16T03:11:18;8.27;;;2.20;;
64500;SDS011;50874;24.150;-110.320;2022-10-16T03:13:44;9.75;;;2.10;;
64500;SDS011;50874;24.150;-110.320;2022-10-16T03:16:11;6.70;;;2.00;;
64500;SDS011;50874;24.150;-110.320;2022-10-16T03:18:37;7.80;;;1.88;;
64500;SDS011;50874;24.150;-110.320;2022-10-16T03:21:04;19.50;;;3.03;;
64500;SDS011;50874;24.150;-110.320;2022-10-16T03:23:30;15.98;;;3.13;;
64500;SDS011;50874;24.150;-110.320;2022-10-16T03:25:56;7.13;;;2.28;;
64500;SDS011;50874;24.150;-110.320;2022-10-16T03:28:24;11.43;;;2.80;;
64500;SDS011;50874;24.150;-110.320;2022-10-16T03:30:50;8.70;;;2.63;;
64500;SDS011;50874;24.150;-110.320;2022-10-16T03:33:17;16.13;;;2.92;;
64500;SDS011;50874;24.150;-110.320;2022-10-16T03:35:50;7.90;;;2.25;;
64500;SDS011;50874;24.150;-110.320;2022-10-16T03:38:18;7.63;;;2.38;;
64500;SDS011;50874;24.150;-110.320;2022-10-16T03:40:45;8.05;;;2.38;;
64500;SDS011;50874;24.150;-110.320;2022-10-16T03:43:12;10.82;;;2.30;;
64500;SDS011;50874;24.150;-110.320;2022-10-16T03:45:38;11.15;;;2.10;;
64500;SDS011;50874;24.150;-110.320;2022-10-16T03:48:05;8.65;;;2.03;;
64500;SDS011;50874;24.150;-110.320;2022-10-16T03:50:31;8.40;;;1.95;;
64500;SDS011;50874;24.150;-110.320;2022-10-16T03:52:58;10.63;;;2.70;;
64500;SDS011;50874;24.150;-110.320;2022-10-16T03:55:24;9.55;;;2.33;;
64500;SDS011;50874;24.150;-110.320;2022-10-16T03:57:51;12.00;;;2.33;;
64500;SDS011;50874;24.150;-110.320;2022-10-16T04:00:17;5.13;;;1.70;;
64500;SDS011;50874;24.150;-110.320;2022-10-16T04:02:44;12.95;;;2.35;;
64500;SDS011;50874;24.150;-110.320;2022-10-16T04:05:11;7.70;;;2.10;;
64500;SDS011;50874;24.150;-110.320;2022-10-16T04:07:37;8.55;;;2.25;;
64500;SDS011;50874;24.150;-110.320;2022-10-16T04:10:04;9.48;;;2.60;;
64500;SDS011;50874;24.150;-110.320;2022-10-16T04:12:30;7.72;;;2.53;;
64500;SDS011;50874;24.150;-110.320;2022-10-16T04:14:57;5.38;;;2.50;;
64500;SDS011;50874;24.150;-110.320;2022-10-16T04:17:23;13.27;;;2.80;;
64500;SDS011;50874;24.150;-110.320;2022-10-16T04:19:50;7.32;;;2.30;;
64500;SDS011;50874;24.150;-110.320;2022-10-16T04:22:16;7.47;;;2.40;;
64500;SDS011;50874;24.150;-110.320;2022-10-16T04:24:43;4.18;;;1.83;;
64500;SDS011;50874;24.150;-110.320;2022-10-16T04:27:09;6.35;;;2.03;;
64500;SDS011;50874;24.150;-110.320;2022-10-16T04:29:36;11.38;;;2.20;;
64500;SDS011;50874;24.150;-110.320;2022-10-16T04:32:02;10.65;;;2.25;;
64500;SDS011;50874;24.150;-110.320;2022-10-16T04:34:29;5.72;;;1.55;;
64500;SDS011;50874;24.150;-110.320;2022-10-16T04:36:55;10.30;;;2.33;;
64500;SDS011;50874;24.150;-110.320;2022-10-16T04:39:21;8.40;;;2.03;;
64500;SDS011;50874;24.150;-110.320;2022-10-16T04:41:48;9.88;;;2.10;;
64500;SDS011;50874;24.150;-110.320;2022-10-16T04:44:14;14.80;;;1.98;;
64500;SDS011;50874;24.150;-110.320;2022-10-16T04:46:41;12.05;;;2.42;;
64500;SDS011;50874;24.150;-110.320;2022-10-16T04:49:07;8.23;;;1.90;;
64500;SDS011;50874;24.150;-110.320;2022-10-16T04:51:34;9.43;;;1.95;;
64500;SDS011;50874;24.150;-110.320;2022-10-16T04:54:00;10.02;;;2.28;;
64500;SDS011;50874;24.150;-110.320;2022-10-16T04:56:27;6.60;;;1.90;;
64500;SDS011;50874;24.150;-110.320;2022-10-16T04:58:53;8.63;;;2.47;;
64500;SDS011;50874;24.150;-110.320;2022-10-16T05:01:19;7.63;;;2.38;;
64500;SDS011;50874;24.150;-110.320;2022-10-16T05:03:46;3.20;;;1.52;;
64500;SDS011;50874;24.150;-110.320;2022-10-16T05:06:12;12.40;;;2.47;;
64500;SDS011;50874;24.150;-110.320;2022-10-16T05:08:39;12.43;;;2.50;;
64500;SDS011;50874;24.150;-110.320;2022-10-16T05:11:05;4.07;;;2.00;;
64500;SDS011;50874;24.150;-110.320;2022-10-16T05:13:31;9.63;;;2.30;;
64500;SDS011;50874;24.150;-110.320;2022-10-16T05:15:58;4.75;;;2.05;;
64500;SDS011;50874;24.150;-110.320;2022-10-16T05:18:24;4.97;;;1.80;;
64500;SDS011;50874;24.150;-110.320;2022-10-16T05:20:51;4.43;;;1.70;;
64500;SDS011;50874;24.150;-110.320;2022-10-16T05:23:17;6.45;;;2.10;;
64500;SDS011;50874;24.150;-110.320;2022-10-16T05:25:51;6.78;;;2.17;;
64500;SDS011;50874;24.150;-110.320;2022-10-16T05:28:23;9.05;;;2.22;;
64500;SDS011;50874;24.150;-110.320;2022-10-16T05:30:51;7.30;;;2.13;;
64500;SDS011;50874;24.150;-110.320;2022-10-16T05:33:19;7.40;;;1.67;;
64500;SDS011;50874;24.150;-110.320;2022-10-16T05:35:46;6.55;;;2.40;;
64500;SDS011;50874;24.150;-110.320;2022-10-16T05:38:13;6.25;;;2.38;;
64500;SDS011;50874;24.150;-110.320;2022-10-16T05:40:39;9.00;;;2.10;;
64500;SDS011;50874;24.150;-110.320;2022-10-16T05:43:06;13.90;;;2.80;;
64500;SDS011;50874;24.150;-110.320;2022-10-16T05:45:32;7.57;;;1.88;;
64500;SDS011;50874;24.150;-110.320;2022-10-16T05:47:59;6.32;;;2.03;;
64500;SDS011;50874;24.150;-110.320;2022-10-16T05:50:26;15.93;;;2.35;;
64500;SDS011;50874;24.150;-110.320;2022-10-16T05:52:53;8.73;;;1.98;;
64500;SDS011;50874;24.150;-110.320;2022-10-16T05:55:19;8.73;;;2.05;;
64500;SDS011;50874;24.150;-110.320;2022-10-16T05:57:46;14.90;;;3.03;;
64500;SDS011;50874;24.150;-110.320;2022-10-16T06:00:12;12.77;;;2.38;;
64500;SDS011;50874;24.150;-110.320;2022-10-16T06:02:38;25.60;;;4.00;;
64500;SDS011;50874;24.150;-110.320;2022-10-16T06:05:05;19.75;;;3.30;;
64500;SDS011;50874;24.150;-110.320;2022-10-16T06:07:34;19.38;;;3.55;;
64500;SDS011;50874;24.150;-110.320;2022-10-16T06:10:01;12.55;;;2.67;;
64500;SDS011;50874;24.150;-110.320;2022-10-16T06:12:28;12.50;;;2.22;;
64500;SDS011;50874;24.150;-110.320;2022-10-16T06:14:54;8.60;;;2.58;;
64500;SDS011;50874;24.150;-110.320;2022-10-16T06:17:21;11.00;;;2.42;;
64500;SDS011;50874;24.150;-110.320;2022-10-16T06:19:47;11.93;;;3.20;;
64500;SDS011;50874;24.150;-110.320;2022-10-16T06:22:14;14.13;;;3.05;;
64500;SDS011;50874;24.150;-110.320;2022-10-16T06:24:41;16.75;;;3.55;;
64500;SDS011;50874;24.150;-110.320;2022-10-16T06:27:07;14.13;;;2.67;;
64500;SDS011;50874;24.150;-110.320;2022-10-16T06:29:34;8.43;;;2.30;;
64500;SDS011;50874;24.150;-110.320;2022-10-16T06:32:00;9.93;;;2.67;;
64500;SDS011;50874;24.150;-110.320;2022-10-16T06:34:26;12.82;;;2.35;;
64500;SDS011;50874;24.150;-110.320;2022-10-16T06:36:53;16.55;;;2.65;;
64500;SDS011;50874;24.150;-110.320;2022-10-16T06:39:20;14.80;;;3.17;;
64500;SDS011;50874;24.150;-110.320;2022-10-16T06:41:46;9.77;;;2.58;;
64500;SDS011;50874;24.150;-110.320;2022-10-16T06:44:14;11.68;;;2.45;;
64500;SDS011;50874;24.150;-110.320;2022-10-16T06:46:40;15.80;;;2.83;;
64500;SDS011;50874;24.150;-110.320;2022-10-16T06:49:07;15.35;;;2.70;;
64500;SDS011;50874;24.150;-110.320;2022-10-16T06:51:33;19.45;;;3.00;;
64500;SDS011;50874;24.150;-110.320;2022-10-16T06:54:01;19.08;;;2.50;;
64500;SDS011;50874;24.150;-110.320;2022-10-16T06:56:28;22.92;;;3.63;;
64500;SDS011;50874;24.150;-110.320;2022-10-16T06:58:56;8.95;;;2.00;;
64500;SDS011;50874;24.150;-110.320;2022-10-16T07:01:23;9.93;;;2.50;;
64500;SDS011;50874;24.150;-110.320;2022-10-16T07:03:50;9.07;;;2.35;;
64500;SDS011;50874;24.150;-110.320;2022-10-16T07:06:19;8.75;;;2.33;;
64500;SDS011;50874;24.150;-110.320;2022-10-16T07:08:48;37.97;;;13.32;;
64500;SDS011;50874;24.150;-110.320;2022-10-16T07:11:16;62.70;;;23.45;;
64500;SDS011;50874;24.150;-110.320;2022-10-16T07:13:45;69.97;;;28.23;;
64500;SDS011;50874;24.150;-110.320;2022-10-16T07:16:16;70.90;;;26.63;;
64500;SDS011;50874;24.150;-110.320;2022-10-16T07:18:44;53.83;;;21.50;;
64500;SDS011;50874;24.150;-110.320;2022-10-16T07:21:13;34.55;;;14.82;;
64500;SDS011;50874;24.150;-110.320;2022-10-16T07:23:53;42.80;;;15.50;;
64500;SDS011;50874;24.150;-110.320;2022-10-16T07:26:21;28.92;;;11.00;;
64500;SDS011;50874;24.150;-110.320;2022-10-16T07:28:48;29.30;;;7.45;;
64500;SDS011;50874;24.150;-110.320;2022-10-16T07:31:16;23.90;;;5.90;;
64500;SDS011;50874;24.150;-110.320;2022-10-16T07:33:44;13.35;;;4.47;;
64500;SDS011;50874;24.150;-110.320;2022-10-16T07:36:13;14.15;;;2.70;;
64500;SDS011;50874;24.150;-110.320;2022-10-16T07:38:41;20.77;;;3.10;;
64500;SDS011;50874;24.150;-110.320;2022-10-16T07:41:09;12.90;;;2.88;;
64500;SDS011;50874;24.150;-110.320;2022-10-16T07:43:38;15.00;;;3.08;;
64500;SDS011;50874;24.150;-110.320;2022-10-16T07:46:05;19.88;;;5.15;;
64500;SDS011;50874;24.150;-110.320;2022-10-16T07:48:32;10.02;;;2.80;;
64500;SDS011;50874;24.150;-110.320;2022-10-16T07:51:00;4.57;;;1.80;;
64500;SDS011;50874;24.150;-110.320;2022-10-16T07:53:28;8.63;;;2.28;;
64500;SDS011;50874;24.150;-110.320;2022-10-16T07:56:03;12.02;;;2.80;;
64500;SDS011;50874;24.150;-110.320;2022-10-16T07:58:31;4.53;;;2.08;;
64500;SDS011;50874;24.150;-110.320;2022-10-16T08:01:02;11.10;;;2.10;;
64500;SDS011;50874;24.150;-110.320;2022-10-16T08:03:30;6.65;;;2.10;;
64500;SDS011;50874;24.150;-110.320;2022-10-16T08:05:57;10.52;;;2.08;;
64500;SDS011;50874;24.150;-110.320;2022-10-16T08:08:24;3.15;;;1.77;;
64500;SDS011;50874;24.150;-110.320;2022-10-16T08:10:52;11.45;;;2.08;;
64500;SDS011;50874;24.150;-110.320;2022-10-16T08:13:18;15.98;;;2.10;;
64500;SDS011;50874;24.150;-110.320;2022-10-16T08:15:45;5.50;;;1.98;;
64500;SDS011;50874;24.150;-110.320;2022-10-16T08:18:13;11.38;;;2.35;;
64500;SDS011;50874;24.150;-110.320;2022-10-16T08:20:40;10.90;;;2.30;;
64500;SDS011;50874;24.150;-110.320;2022-10-16T08:23:09;6.65;;;2.53;;
64500;SDS011;50874;24.150;-110.320;2022-10-16T08:25:39;4.85;;;1.90;;
64500;SDS011;50874;24.150;-110.320;2022-10-16T08:28:08;14.02;;;2.20;;
64500;SDS011;50874;24.150;-110.320;2022-10-16T08:30:35;6.50;;;2.17;;
64500;SDS011;50874;24.150;-110.320;2022-10-16T08:33:02;4.03;;;1.40;;
64500;SDS011;50874;24.150;-110.320;2022-10-16T08:35:29;5.95;;;1.95;;
64500;SDS011;50874;24.150;-110.320;2022-10-16T08:37:56;9.73;;;2.15;;
64500;SDS011;50874;24.150;-110.320;2022-10-16T08:40:24;3.70;;;1.90;;
64500;SDS011;50874;24.150;-110.320;2022-10-16T08:43:02;9.98;;;1.88;;
64500;SDS011;50874;24.150;-110.320;2022-10-16T08:45:51;4.03;;;1.70;;
64500;SDS011;50874;24.150;-110.320;2022-10-16T08:48:34;12.88;;;2.45;;
64500;SDS011;50874;24.150;-110.320;2022-10-16T08:51:34;9.98;;;2.33;;
64500;SDS011;50874;24.150;-110.320;2022-10-16T08:54:05;10.90;;;2.88;;
64500;SDS011;50874;24.150;-110.320;2022-10-16T08:56:41;12.60;;;2.88;;
64500;SDS011;50874;24.150;-110.320;2022-10-16T08:59:10;9.18;;;2.35;;
64500;SDS011;50874;24.150;-110.320;2022-10-16T09:01:41;9.73;;;2.80;;
64500;SDS011;50874;24.150;-110.320;2022-10-16T09:12:54;11.02;;;3.53;;
64500;SDS011;50874;24.150;-110.320;2022-10-16T09:15:58;34.08;;;3.95;;
64500;SDS011;50874;24.150;-110.320;2022-10-16T09:18:25;14.32;;;3.00;;
64500;SDS011;50874;24.150;-110.320;2022-10-16T09:21:04;7.72;;;2.15;;
64500;SDS011;50874;24.150;-110.320;2022-10-16T09:23:53;5.68;;;2.05;;
64500;SDS011;50874;24.150;-110.320;2022-10-16T09:26:23;9.85;;;2.40;;
64500;SDS011;50874;24.150;-110.320;2022-10-16T09:28:51;10.77;;;1.92;;
64500;SDS011;50874;24.150;-110.320;2022-10-16T09:31:19;3.97;;;1.80;;
64500;SDS011;50874;24.150;-110.320;2022-10-16T09:33:52;8.55;;;1.95;;
64500;SDS011;50874;24.150;-110.320;2022-10-16T09:36:23;4.35;;;1.98;;
64500;SDS011;50874;24.150;-110.320;2022-10-16T09:39:00;6.63;;;2.00;;
64500;SDS011;50874;24.150;-110.320;2022-10-16T09:41:29;7.75;;;1.92;;
64500;SDS011;50874;24.150;-110.320;2022-10-16T09:43:59;4.85;;;1.92;;
64500;SDS011;50874;24.150;-110.320;2022-10-16T09:49:23;8.57;;;2.30;;
64500;SDS011;50874;24.150;-110.320;2022-10-16T09:51:48;4.53;;;1.92;;
64500;SDS011;50874;24.150;-110.320;2022-10-16T09:54:20;6.72;;;2.13;;
64500;SDS011;50874;24.150;-110.320;2022-10-16T09:56:47;10.90;;;2.10;;
64500;SDS011;50874;24.150;-110.320;2022-10-16T09:59:17;7.45;;;1.98;;
64500;SDS011;50874;24.150;-110.320;2022-10-16T10:01:47;9.23;;;3.03;;
64500;SDS011;50874;24.150;-110.320;2022-10-16T10:04:16;13.88;;;2.58;;
64500;SDS011;50874;24.150;-110.320;2022-10-16T10:06:51;7.05;;;1.70;;
64500;SDS011;50874;24.150;-110.320;2022-10-16T10:11:57;9.63;;;1.60;;
64500;SDS011;50874;24.150;-110.320;2022-10-16T10:14:30;5.28;;;1.50;;
64500;SDS011;50874;24.150;-110.320;2022-10-16T10:20:15;7.22;;;1.85;;
64500;SDS011;50874;24.150;-110.320;2022-10-16T10:22:43;9.18;;;1.88;;
64500;SDS011;50874;24.150;-110.320;2022-10-16T10:27:49;11.68;;;2.15;;
64500;SDS011;50874;24.150;-110.320;2022-10-16T10:30:59;9.50;;;2.30;;
64500;SDS011;50874;24.150;-110.320;2022-10-16T10:33:28;11.48;;;2.78;;
64500;SDS011;50874;24.150;-110.320;2022-10-16T10:39:23;9.00;;;1.92;;
64500;SDS011;50874;24.150;-110.320;2022-10-16T10:42:00;12.63;;;2.20;;
64500;SDS011;50874;24.150;-110.320;2022-10-16T10:44:37;12.90;;;2.50;;
64500;SDS011;50874;24.150;-110.320;2022-10-16T10:47:27;8.88;;;1.77;;
64500;SDS011;50874;24.150;-110.320;2022-10-16T10:55:43;8.90;;;2.33;;
64500;SDS011;50874;24.150;-110.320;2022-10-16T11:02:00;6.35;;;1.88;;
64500;SDS011;50874;24.150;-110.320;2022-10-16T11:07:04;8.65;;;2.47;;
64500;SDS011;50874;24.150;-110.320;2022-10-16T11:09:36;7.93;;;2.22;;
64500;SDS011;50874;24.150;-110.320;2022-10-16T11:17:41;11.73;;;2.22;;
64500;SDS011;50874;24.150;-110.320;2022-10-16T11:20:37;8.30;;;2.10;;
64500;SDS011;50874;24.150;-110.320;2022-10-16T11:26:02;5.90;;;1.77;;
64500;SDS011;50874;24.150;-110.320;2022-10-16T11:29:08;6.13;;;1.83;;
64500;SDS011;50874;24.150;-110.320;2022-10-16T11:39:28;5.68;;;1.80;;
64500;SDS011;50874;24.150;-110.320;2022-10-16T11:52:59;5.68;;;2.10;;
64500;SDS011;50874;24.150;-110.320;2022-10-16T11:55:29;11.00;;;1.90;;
64500;SDS011;50874;24.150;-110.320;2022-10-16T12:01:16;5.80;;;1.88;;
64500;SDS011;50874;24.150;-110.320;2022-10-16T12:06:42;7.97;;;1.83;;
64500;SDS011;50874;24.150;-110.320;2022-10-16T12:09:29;3.78;;;1.90;;
64500;SDS011;50874;24.150;-110.320;2022-10-16T12:11:57;7.93;;;1.55;;
64500;SDS011;50874;24.150;-110.320;2022-10-16T12:14:35;3.75;;;1.73;;
64500;SDS011;50874;24.150;-110.320;2022-10-16T12:17:04;4.70;;;1.98;;
64500;SDS011;50874;24.150;-110.320;2022-10-16T12:22:49;4.18;;;1.77;;
64500;SDS011;50874;24.150;-110.320;2022-10-16T12:27:54;3.67;;;1.98;;
64500;SDS011;50874;24.150;-110.320;2022-10-16T12:30:32;8.93;;;1.90;;
64500;SDS011;50874;24.150;-110.320;2022-10-16T12:33:16;2.10;;;1.77;;
64500;SDS011;50874;24.150;-110.320;2022-10-16T12:36:16;9.77;;;1.95;;
64500;SDS011;50874;24.150;-110.320;2022-10-16T12:39:02;6.68;;;2.10;;
64500;SDS011;50874;24.150;-110.320;2022-10-16T12:41:29;4.95;;;2.15;;
64500;SDS011;50874;24.150;-110.320;2022-10-16T12:44:03;4.50;;;1.95;;
64500;SDS011;50874;24.150;-110.320;2022-10-16T12:51:41;5.30;;;1.50;;
64500;SDS011;50874;24.150;-110.320;2022-10-16T12:54:22;3.45;;;1.80;;
64500;SDS011;50874;24.150;-110.320;2022-10-16T12:57:04;2.58;;;1.52;;
64500;SDS011;50874;24.150;-110.320;2022-10-16T12:59:41;3.13;;;1.80;;
64500;SDS011;50874;24.150;-110.320;2022-10-16T13:05:20;5.18;;;1.55;;
64500;SDS011;50874;24.150;-110.320;2022-10-16T13:16:01;13.20;;;2.13;;
64500;SDS011;50874;24.150;-110.320;2022-10-16T13:18:38;4.63;;;2.10;;
64500;SDS011;50874;24.150;-110.320;2022-10-16T13:29:19;36.13;;;19.42;;
64500;SDS011;50874;24.150;-110.320;2022-10-16T13:31:46;33.88;;;16.25;;
64500;SDS011;50874;24.150;-110.320;2022-10-16T13:34:14;22.45;;;10.27;;
64500;SDS011;50874;24.150;-110.320;2022-10-16T13:36:44;19.92;;;6.88;;
64500;SDS011;50874;24.150;-110.320;2022-10-16T13:42:00;7.60;;;3.00;;
64500;SDS011;50874;24.150;-110.320;2022-10-16T13:44:28;11.90;;;2.72;;
64500;SDS011;50874;24.150;-110.320;2022-10-16T13:47:01;13.35;;;2.45;;
64500;SDS011;50874;24.150;-110.320;2022-10-16T13:49:28;4.65;;;1.98;;
64500;SDS011;50874;24.150;-110.320;2022-10-16T13:51:55;9.77;;;2.70;;
64500;SDS011;50874;24.150;-110.320;2022-10-16T13:54:23;8.52;;;2.17;;
64500;SDS011;50874;24.150;-110.320;2022-10-16T13:56:51;14.80;;;2.50;;
64500;SDS011;50874;24.150;-110.320;2022-10-16T13:59:34;10.10;;;2.33;;
64500;SDS011;50874;24.150;-110.320;2022-10-16T14:02:23;7.88;;;1.65;;
64500;SDS011;50874;24.150;-110.320;2022-10-16T14:04:52;9.50;;;2.25;;
64500;SDS011;50874;24.150;-110.320;2022-10-16T14:07:23;3.95;;;1.70;;
64500;SDS011;50874;24.150;-110.320;2022-10-16T14:09:52;9.70;;;1.95;;
64500;SDS011;50874;24.150;-110.320;2022-10-16T14:12:20;7.20;;;2.35;;
64500;SDS011;50874;24.150;-110.320;2022-10-16T14:14:51;4.05;;;2.35;;
64500;SDS011;50874;24.150;-110.320;2022-10-16T14:17:23;4.72;;;1.80;;
64500;SDS011;50874;24.150;-110.320;2022-10-16T14:19:55;3.58;;;1.67;;
64500;SDS011;50874;24.150;-110.320;2022-10-16T14:27:45;10.13;;;1.83;;
64500;SDS011;50874;24.150;-110.320;2022-10-16T14:33:06;8.98;;;1.65;;
64500;SDS011;50874;24.150;-110.320;2022-10-16T14:35:45;7.13;;;1.45;;
64500;SDS011;50874;24.150;-110.320;2022-10-16T14:38:17;3.22;;;1.83;;
64500;SDS011;50874;24.150;-110.320;2022-10-16T14:40:47;7.03;;;2.17;;
64500;SDS011;50874;24.150;-110.320;2022-10-16T14:43:17;9.23;;;1.70;;
64500;SDS011;50874;24.150;-110.320;2022-10-16T14:45:54;6.00;;;1.73;;
64500;SDS011;50874;24.150;-110.320;2022-10-16T14:48:22;5.78;;;1.42;;
64500;SDS011;50874;24.150;-110.320;2022-10-16T14:50:49;9.43;;;1.75;;
64500;SDS011;50874;24.150;-110.320;2022-10-16T14:53:16;9.48;;;1.70;;
64500;SDS011;50874;24.150;-110.320;2022-10-16T14:55:42;6.00;;;1.83;;
64500;SDS011;50874;24.150;-110.320;2022-10-16T14:58:30;5.07;;;1.45;;
64500;SDS011;50874;24.150;-110.320;2022-10-16T15:00:56;9.05;;;1.38;;
64500;SDS011;50874;24.150;-110.320;2022-10-16T15:03:22;4.32;;;1.50;;
64500;SDS011;50874;24.150;-110.320;2022-10-16T15:05:49;6.18;;;1.50;;
64500;SDS011;50874;24.150;-110.320;2022-10-16T15:08:15;4.65;;;1.40;;
64500;SDS011;50874;24.150;-110.320;2022-10-16T15:10:42;6.97;;;1.70;;
64500;SDS011;50874;24.150;-110.320;2022-10-16T15:13:13;8.05;;;1.30;;
64500;SDS011;50874;24.150;-110.320;2022-10-16T15:15:43;5.45;;;1.60;;
64500;SDS011;50874;24.150;-110.320;2022-10-16T15:18:12;5.53;;;1.30;;
64500;SDS011;50874;24.150;-110.320;2022-10-16T15:20:40;5.45;;;1.60;;
64500;SDS011;50874;24.150;-110.320;2022-10-16T15:23:14;7.57;;;1.55;;
64500;SDS011;50874;24.150;-110.320;2022-10-16T15:25:45;3.80;;;1.80;;
64500;SDS011;50874;24.150;-110.320;2022-10-16T15:28:17;5.10;;;1.38;;
64500;SDS011;50874;24.150;-110.320;2022-10-16T15:30:44;5.57;;;1.27;;
64500;SDS011;50874;24.150;-110.320;2022-10-16T15:33:15;5.43;;;1.45;;
64500;SDS011;50874;24.150;-110.320;2022-10-16T15:35:59;3.97;;;1.30;;
64500;SDS011;50874;24.150;-110.320;2022-10-16T15:38:26;3.80;;;1.10;;
64500;SDS011;50874;24.150;-110.320;2022-10-16T15:40:54;5.78;;;1.63;;
64500;SDS011;50874;24.150;-110.320;2022-10-16T15:43:20;5.75;;;1.55;;
64500;SDS011;50874;24.150;-110.320;2022-10-16T15:46:00;4.60;;;1.40;;
64500;SDS011;50874;24.150;-110.320;2022-10-16T15:48:29;3.13;;;1.35;;
64500;SDS011;50874;24.150;-110.320;2022-10-16T15:50:56;3.35;;;1.38;;
64500;SDS011;50874;24.150;-110.320;2022-10-16T15:53:23;6.63;;;2.03;;
64500;SDS011;50874;24.150;-110.320;2022-10-16T15:55:49;5.15;;;1.35;;
64500;SDS011;50874;24.150;-110.320;2022-10-16T15:58:16;5.65;;;2.10;;
64500;SDS011;50874;24.150;-110.320;2022-10-16T16:00:42;6.03;;;1.30;;
64500;SDS011;50874;24.150;-110.320;2022-10-16T16:03:09;5.35;;;1.15;;
64500;SDS011;50874;24.150;-110.320;2022-10-16T16:05:37;1.45;;;0.80;;
64500;SDS011;50874;24.150;-110.320;2022-10-16T16:08:05;2.58;;;1.13;;
64500;SDS011;50874;24.150;-110.320;2022-10-16T16:10:31;2.90;;;1.15;;
64500;SDS011;50874;24.150;-110.320;2022-10-16T16:12:58;2.45;;;1.17;;
64500;SDS011;50874;24.150;-110.320;2022-10-16T16:15:24;4.40;;;1.60;;
64500;SDS011;50874;24.150;-110.320;2022-10-16T16:17:51;2.22;;;1.08;;
64500;SDS011;50874;24.150;-110.320;2022-10-16T16:20:17;5.55;;;1.52;;
64500;SDS011;50874;24.150;-110.320;2022-10-16T16:22:44;6.72;;;1.38;;
64500;SDS011;50874;24.150;-110.320;2022-10-16T16:25:10;4.20;;;1.20;;
64500;SDS011;50874;24.150;-110.320;2022-10-16T16:27:37;3.13;;;1.20;;
64500;SDS011;50874;24.150;-110.320;2022-10-16T16:30:04;5.20;;;1.30;;
64500;SDS011;50874;24.150;-110.320;2022-10-16T16:32:33;3.17;;;1.50;;
64500;SDS011;50874;24.150;-110.320;2022-10-16T16:35:00;3.65;;;1.58;;
64500;SDS011;50874;24.150;-110.320;2022-10-16T16:37:27;4.70;;;1.40;;